sensor_id;sensor_type;location;lat;lon;timestamp;pressure;altitude;pressure_sealevel;temperature;humidity
78313;BME280;67568;47.438;21.408;2024-03-23T00:55:24;100311.72;;;7.87;68.91
78313;BME280;67568;47.438;21.408;2024-03-23T00:57:50;100310.63;;;7.88;68.54
78313;BME280;67568;47.438;21.408;2024-03-23T01:00:16;100317.28;;;7.82;68.25
78313;BME280;67568;47.438;21.408;2024-03-23T01:02:41;100302.88;;;7.90;67.01
78313;BME280;67568;47.438;21.408;2024-03-23T01:05:07;100313.44;;;7.83;68.22
78313;BME280;67568;47.438;21.408;2024-03-23T01:07:33;100313.38;;;7.88;67.98
78313;BME280;67568;47.438;21.408;2024-03-23T01:09:59;100313.69;;;7.86;67.72
78313;BME280;67568;47.438;21.408;2024-03-23T01:12:24;100312.91;;;7.76;68.89
78313;BME280;67568;47.438;21.408;2024-03-23T01:14:50;100307.91;;;7.83;67.90
78313;BME280;67568;47.438;21.408;2024-03-23T01:17:16;100295.56;;;7.70;68.62
78313;BME280;67568;47.438;21.408;2024-03-23T01:19:41;100294.19;;;7.68;68.70
78313;BME280;67568;47.438;21.408;2024-03-23T01:22:07;100292.22;;;7.73;68.94
78313;BME280;67568;47.438;21.408;2024-03-23T01:24:33;100289.78;;;7.72;69.06
78313;BME280;67568;47.438;21.408;2024-03-23T01:26:59;100298.56;;;7.74;67.80
78313;BME280;67568;47.438;21.408;2024-03-23T01:29:24;100305.47;;;7.71;69.17
78313;BME280;67568;47.438;21.408;2024-03-23T01:31:50;100301.31;;;7.74;69.12
78313;BME280;67568;47.438;21.408;2024-03-23T01:34:16;100301.41;;;7.63;68.15
78313;BME280;67568;47.438;21.408;2024-03-23T01:36:42;100304.72;;;7.60;69.07
78313;BME280;67568;47.438;21.408;2024-03-23T01:39:07;100307.97;;;7.68;68.33
78313;BME280;67568;47.438;21.408;2024-03-23T01:41:33;100298.88;;;7.67;68.01
78313;BME280;67568;47.438;21.408;2024-03-23T01:44:04;100298.63;;;7.63;68.95
78313;BME280;67568;47.438;21.408;2024-03-23T01:46:30;100296.72;;;7.59;68.57
78313;BME280;67568;47.438;21.408;2024-03-23T01:48:56;100304.44;;;7.57;68.73
78313;BME280;67568;47.438;21.408;2024-03-23T01:51:22;100295.38;;;7.51;69.68
78313;BME280;67568;47.438;21.408;2024-03-23T01:53:48;100299.78;;;7.57;68.91
78313;BME280;67568;47.438;21.408;2024-03-23T01:56:14;100290.13;;;7.55;69.89
78313;BME280;67568;47.438;21.408;2024-03-23T01:58:41;100301.16;;;7.55;69.71
78313;BME280;67568;47.438;21.408;2024-03-23T02:01:06;100295.69;;;7.44;70.70
78313;BME280;67568;47.438;21.408;2024-03-23T02:03:32;100289.34;;;7.44;70.77
78313;BME280;67568;47.438;21.408;2024-03-23T02:06:00;100293.50;;;7.36;71.03
78313;BME280;67568;47.438;21.408;2024-03-23T02:08:26;100286.59;;;7.44;70.64
78313;BME280;67568;47.438;21.408;2024-03-23T02:10:52;100291.56;;;7.37;71.00
78313;BME280;67568;47.438;21.408;2024-03-23T02:13:18;100288.31;;;7.35;70.06
78313;BME280;67568;47.438;21.408;2024-03-23T02:15:44;100277.56;;;7.28;71.87
78313;BME280;67568;47.438;21.408;2024-03-23T02:18:10;100278.94;;;7.31;70.40
78313;BME280;67568;47.438;21.408;2024-03-23T02:20:36;100278.94;;;7.26;70.32
78313;BME280;67568;47.438;21.408;2024-03-23T02:23:03;100276.72;;;7.33;70.24
78313;BME280;67568;47.438;21.408;2024-03-23T02:25:29;100276.50;;;7.24;71.97
78313;BME280;67568;47.438;21.408;2024-03-23T02:27:55;100271.81;;;7.19;71.07
78313;BME280;67568;47.438;21.408;2024-03-23T02:30:20;100274.88;;;7.08;72.25
78313;BME280;67568;47.438;21.408;2024-03-23T02:32:46;100276.28;;;7.00;71.74
78313;BME280;67568;47.438;21.408;2024-03-23T02:35:12;100264.75;;;6.98;72.95
78313;BME280;67568;47.438;21.408;2024-03-23T02:37:37;100266.06;;;7.06;72.13
78313;BME280;67568;47.438;21.408;2024-03-23T02:40:03;100258.69;;;6.96;72.42
78313;BME280;67568;47.438;21.408;2024-03-23T02:42:29;100251.00;;;6.88;72.61
78313;BME280;67568;47.438;21.408;2024-03-23T02:44:55;100259.81;;;6.90;72.37
78313;BME280;67568;47.438;21.408;2024-03-23T02:47:20;100251.78;;;6.93;72.29
78313;BME280;67568;47.438;21.408;2024-03-23T02:49:46;100250.41;;;6.96;71.28
78313;BME280;67568;47.438;21.408;2024-03-23T02:52:11;100248.78;;;6.95;72.23
78313;BME280;67568;47.438;21.408;2024-03-23T02:54:37;100242.97;;;6.91;71.69
78313;BME280;67568;47.438;21.408;2024-03-23T02:57:03;100239.97;;;6.83;72.77
78313;BME280;67568;47.438;21.408;2024-03-23T02:59:29;100243.28;;;6.90;71.85
78313;BME280;67568;47.438;21.408;2024-03-23T03:01:54;100238.91;;;6.84;72.43
78313;BME280;67568;47.438;21.408;2024-03-23T03:04:20;100235.84;;;6.90;72.25
78313;BME280;67568;47.438;21.408;2024-03-23T03:06:49;100245.50;;;6.83;71.99
78313;BME280;67568;47.438;21.408;2024-03-23T03:09:15;100231.22;;;6.70;73.55
78313;BME280;67568;47.438;21.408;2024-03-23T03:11:40;100233.16;;;6.65;72.76
78313;BME280;67568;47.438;21.408;2024-03-23T03:14:06;100225.19;;;6.63;72.64
78313;BME280;67568;47.438;21.408;2024-03-23T03:16:32;100223.50;;;6.67;73.93
78313;BME280;67568;47.438;21.408;2024-03-23T03:18:57;100229.56;;;6.69;72.31
78313;BME280;67568;47.438;21.408;2024-03-23T03:21:23;100224.63;;;6.56;72.93
78313;BME280;67568;47.438;21.408;2024-03-23T03:23:48;100229.03;;;6.67;73.63
78313;BME280;67568;47.438;21.408;2024-03-23T03:26:14;100223.25;;;6.64;73.61
78313;BME280;67568;47.438;21.408;2024-03-23T03:28:40;100220.22;;;6.65;72.62
78313;BME280;67568;47.438;21.408;2024-03-23T03:31:05;100225.97;;;6.74;72.31
78313;BME280;67568;47.438;21.408;2024-03-23T03:33:31;100222.44;;;6.63;73.42
78313;BME280;67568;47.438;21.408;2024-03-23T03:35:57;100223.56;;;6.42;74.96
78313;BME280;67568;47.438;21.408;2024-03-23T03:38:22;100217.25;;;6.41;74.99
78313;BME280;67568;47.438;21.408;2024-03-23T03:40:48;100216.16;;;6.32;73.97
78313;BME280;67568;47.438;21.408;2024-03-23T03:43:14;100214.22;;;6.33;74.82
78313;BME280;67568;47.438;21.408;2024-03-23T03:45:40;100212.56;;;6.42;73.70
78313;BME280;67568;47.438;21.408;2024-03-23T03:48:06;100215.56;;;6.45;73.54
78313;BME280;67568;47.438;21.408;2024-03-23T03:50:32;100213.38;;;6.42;74.35
78313;BME280;67568;47.438;21.408;2024-03-23T03:52:57;100205.94;;;6.43;74.96
78313;BME280;67568;47.438;21.408;2024-03-23T03:55:23;100206.50;;;6.45;73.81
78313;BME280;67568;47.438;21.408;2024-03-23T03:57:48;100210.38;;;6.44;74.27
78313;BME280;67568;47.438;21.408;2024-03-23T04:00:14;100211.47;;;6.38;74.99
78313;BME280;67568;47.438;21.408;2024-03-23T04:02:40;100218.66;;;6.23;74.45
78313;BME280;67568;47.438;21.408;2024-03-23T04:05:06;100210.66;;;6.32;75.02
78313;BME280;67568;47.438;21.408;2024-03-23T04:07:32;100212.59;;;6.21;74.12
78313;BME280;67568;47.438;21.408;2024-03-23T04:09:57;100225.78;;;6.19;75.08
78313;BME280;67568;47.438;21.408;2024-03-23T04:12:23;100224.97;;;6.19;75.16
78313;BME280;67568;47.438;21.408;2024-03-23T04:14:49;100226.31;;;5.85;76.03
78313;BME280;67568;47.438;21.408;2024-03-23T04:17:15;100223.03;;;5.94;76.77
78313;BME280;67568;47.438;21.408;2024-03-23T04:19:41;100234.28;;;5.82;77.13
78313;BME280;67568;47.438;21.408;2024-03-23T04:22:06;100223.00;;;5.89;76.35
78313;BME280;67568;47.438;21.408;2024-03-23T04:24:32;100220.56;;;5.92;76.37
78313;BME280;67568;47.438;21.408;2024-03-23T04:26:58;100223.59;;;5.96;75.46
78313;BME280;67568;47.438;21.408;2024-03-23T04:29:23;100221.94;;;5.95;75.69
78313;BME280;67568;47.438;21.408;2024-03-23T04:31:49;100228.81;;;6.02;75.81
78313;BME280;67568;47.438;21.408;2024-03-23T04:34:14;100223.63;;;6.01;75.17
78313;BME280;67568;47.438;21.408;2024-03-23T04:36:40;100224.16;;;6.08;74.77
78313;BME280;67568;47.438;21.408;2024-03-23T04:39:06;100218.94;;;5.96;76.50
78313;BME280;67568;47.438;21.408;2024-03-23T04:41:31;100227.16;;;6.12;75.80
78313;BME280;67568;47.438;21.408;2024-03-23T04:43:57;100224.97;;;5.98;76.52
78313;BME280;67568;47.438;21.408;2024-03-23T04:46:23;100213.69;;;5.90;77.48
78313;BME280;67568;47.438;21.408;2024-03-23T04:48:48;100215.34;;;6.06;76.39
78313;BME280;67568;47.438;21.408;2024-03-23T04:51:23;100225.25;;;6.02;76.41
78313;BME280;67568;47.438;21.408;2024-03-23T04:53:49;100219.75;;;6.12;76.65
78313;BME280;67568;47.438;21.408;2024-03-23T04:56:16;100218.34;;;6.15;75.30
78313;BME280;67568;47.438;21.408;2024-03-23T04:58:41;100216.97;;;6.17;77.01
78313;BME280;67568;47.438;21.408;2024-03-23T05:01:07;100218.09;;;6.21;76.90
78313;BME280;67568;47.438;21.408;2024-03-23T05:03:33;100215.06;;;6.28;76.86
78313;BME280;67568;47.438;21.408;2024-03-23T05:05:58;100216.97;;;6.33;75.05
78313;BME280;67568;47.438;21.408;2024-03-23T05:08:24;100210.38;;;6.44;75.72
78313;BME280;67568;47.438;21.408;2024-03-23T05:10:50;100208.13;;;6.66;74.33
78313;BME280;67568;47.438;21.408;2024-03-23T05:13:15;100214.38;;;6.82;73.46
78313;BME280;67568;47.438;21.408;2024-03-23T05:15:41;100216.84;;;6.89;74.28
78313;BME280;67568;47.438;21.408;2024-03-23T05:18:07;100212.31;;;7.18;72.25
78313;BME280;67568;47.438;21.408;2024-03-23T05:20:32;100215.56;;;7.26;72.95
78313;BME280;67568;47.438;21.408;2024-03-23T05:22:58;100202.75;;;7.50;72.16
78313;BME280;67568;47.438;21.408;2024-03-23T05:25:24;100202.28;;;7.38;73.90
78313;BME280;67568;47.438;21.408;2024-03-23T05:27:49;100202.00;;;7.79;71.85
78313;BME280;67568;47.438;21.408;2024-03-23T05:30:15;100192.28;;;7.92;70.91
78313;BME280;67568;47.438;21.408;2024-03-23T05:32:41;100193.63;;;7.94;71.67
78313;BME280;67568;47.438;21.408;2024-03-23T05:35:07;100200.22;;;7.98;71.68
78313;BME280;67568;47.438;21.408;2024-03-23T05:37:36;100200.13;;;8.08;70.42
78313;BME280;67568;47.438;21.408;2024-03-23T05:40:02;100202.25;;;8.17;70.68
78313;BME280;67568;47.438;21.408;2024-03-23T05:42:27;100199.75;;;8.49;70.51
78313;BME280;67568;47.438;21.408;2024-03-23T05:44:53;100197.91;;;8.69;69.41
78313;BME280;67568;47.438;21.408;2024-03-23T05:47:18;100194.63;;;9.10;68.25
78313;BME280;67568;47.438;21.408;2024-03-23T05:49:46;100193.03;;;9.46;67.52
78313;BME280;67568;47.438;21.408;2024-03-23T05:52:12;100193.13;;;9.93;66.49
78313;BME280;67568;47.438;21.408;2024-03-23T05:54:40;100187.91;;;10.24;65.40
78313;BME280;67568;47.438;21.408;2024-03-23T05:57:06;100189.22;;;10.46;64.55
78313;BME280;67568;47.438;21.408;2024-03-23T05:59:32;100197.25;;;11.16;63.12
78313;BME280;67568;47.438;21.408;2024-03-23T06:01:57;100191.59;;;10.66;64.20
78313;BME280;67568;47.438;21.408;2024-03-23T06:04:23;100198.50;;;10.03;65.46
78313;BME280;67568;47.438;21.408;2024-03-23T06:06:48;100186.53;;;10.41;66.96
78313;BME280;67568;47.438;21.408;2024-03-23T06:09:14;100199.28;;;9.90;67.58
78313;BME280;67568;47.438;21.408;2024-03-23T06:11:40;100196.47;;;10.09;67.16
78313;BME280;67568;47.438;21.408;2024-03-23T06:14:06;100190.94;;;10.09;67.96
78313;BME280;67568;47.438;21.408;2024-03-23T06:16:31;100204.09;;;10.17;67.89
78313;BME280;67568;47.438;21.408;2024-03-23T06:18:57;100199.13;;;10.00;68.65
78313;BME280;67568;47.438;21.408;2024-03-23T06:21:23;100204.66;;;10.00;68.59
78313;BME280;67568;47.438;21.408;2024-03-23T06:23:51;100204.72;;;9.95;68.85
78313;BME280;67568;47.438;21.408;2024-03-23T06:26:18;100200.53;;;9.98;68.74
78313;BME280;67568;47.438;21.408;2024-03-23T06:28:44;100203.03;;;9.99;69.17
78313;BME280;67568;47.438;21.408;2024-03-23T06:31:09;100205.66;;;9.90;69.54
78313;BME280;67568;47.438;21.408;2024-03-23T06:33:35;100196.50;;;9.90;69.43
78313;BME280;67568;47.438;21.408;2024-03-23T06:36:01;100200.34;;;9.94;69.76
78313;BME280;67568;47.438;21.408;2024-03-23T06:38:27;100194.19;;;9.97;69.58
78313;BME280;67568;47.438;21.408;2024-03-23T06:40:52;100201.06;;;10.00;70.07
78313;BME280;67568;47.438;21.408;2024-03-23T06:43:18;100184.19;;;10.15;69.63
78313;BME280;67568;47.438;21.408;2024-03-23T06:45:44;100185.19;;;10.05;69.72
78313;BME280;67568;47.438;21.408;2024-03-23T06:48:09;100187.56;;;10.12;69.65
78313;BME280;67568;47.438;21.408;2024-03-23T06:50:35;100188.75;;;10.25;69.32
78313;BME280;67568;47.438;21.408;2024-03-23T06:53:01;100185.28;;;10.33;69.29
78313;BME280;67568;47.438;21.408;2024-03-23T06:55:28;100192.91;;;10.41;68.99
78313;BME280;67568;47.438;21.408;2024-03-23T06:57:57;100185.94;;;10.44;68.96
78313;BME280;67568;47.438;21.408;2024-03-23T07:00:23;100188.53;;;10.54;69.19
78313;BME280;67568;47.438;21.408;2024-03-23T07:02:48;100194.97;;;10.63;68.63
78313;BME280;67568;47.438;21.408;2024-03-23T07:05:14;100191.91;;;10.78;68.65
78313;BME280;67568;47.438;21.408;2024-03-23T07:07:40;100183.50;;;10.84;68.81
78313;BME280;67568;47.438;21.408;2024-03-23T07:10:06;100190.28;;;10.77;68.95
78313;BME280;67568;47.438;21.408;2024-03-23T07:12:32;100195.41;;;10.98;68.33
78313;BME280;67568;47.438;21.408;2024-03-23T07:14:57;100189.41;;;11.18;67.78
78313;BME280;67568;47.438;21.408;2024-03-23T07:17:23;100186.97;;;11.17;68.83
78313;BME280;67568;47.438;21.408;2024-03-23T07:19:49;100182.94;;;11.37;68.31
78313;BME280;67568;47.438;21.408;2024-03-23T07:22:14;100179.75;;;11.66;66.88
78313;BME280;67568;47.438;21.408;2024-03-23T07:24:41;100180.44;;;11.85;66.39
78313;BME280;67568;47.438;21.408;2024-03-23T07:27:07;100172.03;;;11.77;67.32
78313;BME280;67568;47.438;21.408;2024-03-23T07:29:32;100176.59;;;11.95;67.14
78313;BME280;67568;47.438;21.408;2024-03-23T07:31:58;100174.75;;;12.13;65.94
78313;BME280;67568;47.438;21.408;2024-03-23T07:34:23;100177.13;;;12.28;65.71
78313;BME280;67568;47.438;21.408;2024-03-23T07:36:49;100177.09;;;12.20;66.14
78313;BME280;67568;47.438;21.408;2024-03-23T07:39:15;100169.88;;;12.41;65.05
78313;BME280;67568;47.438;21.408;2024-03-23T07:41:44;100174.88;;;12.62;64.42
78313;BME280;67568;47.438;21.408;2024-03-23T07:44:10;100169.22;;;12.84;65.09
78313;BME280;67568;47.438;21.408;2024-03-23T07:46:36;100166.13;;;12.94;64.76
78313;BME280;67568;47.438;21.408;2024-03-23T07:49:01;100165.28;;;13.51;63.37
78313;BME280;67568;47.438;21.408;2024-03-23T07:51:27;100164.63;;;13.63;63.76
78313;BME280;67568;47.438;21.408;2024-03-23T07:53:52;100164.16;;;13.95;61.91
78313;BME280;67568;47.438;21.408;2024-03-23T07:56:18;100164.13;;;14.77;59.48
78313;BME280;67568;47.438;21.408;2024-03-23T07:58:47;100163.34;;;15.27;56.90
78313;BME280;67568;47.438;21.408;2024-03-23T08:01:14;100158.66;;;15.61;56.98
78313;BME280;67568;47.438;21.408;2024-03-23T08:03:42;100154.91;;;16.45;55.35
78313;BME280;67568;47.438;21.408;2024-03-23T08:06:14;100151.84;;;16.95;52.81
78313;BME280;67568;47.438;21.408;2024-03-23T08:08:41;100143.94;;;17.50;51.58
78313;BME280;67568;47.438;21.408;2024-03-23T08:11:07;100148.81;;;17.65;51.56
78313;BME280;67568;47.438;21.408;2024-03-23T08:13:34;100146.72;;;17.22;51.28
78313;BME280;67568;47.438;21.408;2024-03-23T08:16:02;100139.00;;;17.31;50.78
78313;BME280;67568;47.438;21.408;2024-03-23T08:18:28;100141.44;;;17.85;51.33
78313;BME280;67568;47.438;21.408;2024-03-23T08:21:04;100126.22;;;18.14;50.71
78313;BME280;67568;47.438;21.408;2024-03-23T08:23:32;100127.34;;;17.17;51.79
78313;BME280;67568;47.438;21.408;2024-03-23T08:25:59;100124.47;;;18.10;51.05
78313;BME280;67568;47.438;21.408;2024-03-23T08:28:25;100117.13;;;18.65;48.58
78313;BME280;67568;47.438;21.408;2024-03-23T08:30:54;100115.47;;;18.64;48.93
78313;BME280;67568;47.438;21.408;2024-03-23T08:33:21;100116.16;;;19.24;47.29
78313;BME280;67568;47.438;21.408;2024-03-23T08:38:19;100112.09;;;20.61;43.46
78313;BME280;67568;47.438;21.408;2024-03-23T08:40:44;100103.91;;;20.76;43.31
78313;BME280;67568;47.438;21.408;2024-03-23T08:43:10;100108.97;;;21.20;42.36
78313;BME280;67568;47.438;21.408;2024-03-23T08:45:36;100092.44;;;21.15;41.89
78313;BME280;67568;47.438;21.408;2024-03-23T08:48:02;100096.81;;;21.39;42.30
78313;BME280;67568;47.438;21.408;2024-03-23T08:50:28;100098.38;;;21.09;42.90
78313;BME280;67568;47.438;21.408;2024-03-23T08:52:53;100079.56;;;20.64;43.05
78313;BME280;67568;47.438;21.408;2024-03-23T08:55:19;100086.91;;;20.26;43.41
78313;BME280;67568;47.438;21.408;2024-03-23T08:57:44;100078.34;;;20.42;43.64
78313;BME280;67568;47.438;21.408;2024-03-23T09:00:10;100073.47;;;20.85;42.68
78313;BME280;67568;47.438;21.408;2024-03-23T09:02:37;100065.66;;;21.01;42.47
78313;BME280;67568;47.438;21.408;2024-03-23T09:05:02;100073.06;;;21.40;41.01
78313;BME280;67568;47.438;21.408;2024-03-23T09:07:28;100051.72;;;22.10;40.23
78313;BME280;67568;47.438;21.408;2024-03-23T09:09:54;100060.72;;;21.51;40.54
78313;BME280;67568;47.438;21.408;2024-03-23T09:12:19;100053.41;;;20.90;41.72
78313;BME280;67568;47.438;21.408;2024-03-23T09:14:45;100036.81;;;19.89;43.56
78313;BME280;67568;47.438;21.408;2024-03-23T09:17:11;100042.91;;;19.52;45.21
78313;BME280;67568;47.438;21.408;2024-03-23T09:19:36;100042.75;;;19.84;45.12
78313;BME280;67568;47.438;21.408;2024-03-23T09:22:02;100048.16;;;20.16;43.88
78313;BME280;67568;47.438;21.408;2024-03-23T09:24:28;100042.34;;;22.02;41.63
78313;BME280;67568;47.438;21.408;2024-03-23T09:26:53;100033.94;;;23.02;39.26
78313;BME280;67568;47.438;21.408;2024-03-23T13:36:57;99666.84;;;18.39;39.78
78313;BME280;67568;47.438;21.408;2024-03-23T13:39:23;99667.53;;;18.33;39.35
78313;BME280;67568;47.438;21.408;2024-03-23T13:41:48;99664.94;;;18.24;39.78
78313;BME280;67568;47.438;21.408;2024-03-23T13:44:14;99650.19;;;18.27;38.99
78313;BME280;67568;47.438;21.408;2024-03-23T13:46:40;99649.88;;;18.32;39.30
78313;BME280;67568;47.438;21.408;2024-03-23T13:49:06;99640.28;;;18.33;39.29
78313;BME280;67568;47.438;21.408;2024-03-23T13:51:33;99637.78;;;18.28;39.47
78313;BME280;67568;47.438;21.408;2024-03-23T13:53:59;99639.09;;;18.34;39.13
78313;BME280;67568;47.438;21.408;2024-03-23T13:56:24;99638.66;;;18.32;39.04
78313;BME280;67568;47.438;21.408;2024-03-23T13:58:50;99633.03;;;18.32;39.05
78313;BME280;67568;47.438;21.408;2024-03-23T14:01:16;99632.16;;;18.28;38.91
78313;BME280;67568;47.438;21.408;2024-03-23T14:03:43;99622.75;;;18.17;39.65
78313;BME280;67568;47.438;21.408;2024-03-23T14:06:09;99619.47;;;18.34;39.03
78313;BME280;67568;47.438;21.408;2024-03-23T14:08:35;99627.00;;;18.30;39.34
78313;BME280;67568;47.438;21.408;2024-03-23T14:11:08;99616.88;;;18.26;38.81
78313;BME280;67568;47.438;21.408;2024-03-23T14:13:34;99613.78;;;18.31;39.78
78313;BME280;67568;47.438;21.408;2024-03-23T14:16:01;99614.31;;;18.17;39.65
78313;BME280;67568;47.438;21.408;2024-03-23T14:18:27;99607.22;;;18.23;39.63
78313;BME280;67568;47.438;21.408;2024-03-23T14:20:56;99606.03;;;18.24;40.28
78313;BME280;67568;47.438;21.408;2024-03-23T14:23:22;99607.69;;;18.06;39.93
78313;BME280;67568;47.438;21.408;2024-03-23T14:25:48;99598.94;;;18.07;40.22
78313;BME280;67568;47.438;21.408;2024-03-23T14:28:14;99598.09;;;18.07;40.05
78313;BME280;67568;47.438;21.408;2024-03-23T14:30:41;99589.28;;;18.05;40.48
78313;BME280;67568;47.438;21.408;2024-03-23T14:33:06;99586.75;;;18.00;40.54
78313;BME280;67568;47.438;21.408;2024-03-23T14:35:32;99585.88;;;17.95;40.47
78313;BME280;67568;47.438;21.408;2024-03-23T14:37:57;99575.41;;;17.92;41.02
78313;BME280;67568;47.438;21.408;2024-03-23T14:40:23;99579.84;;;17.93;40.39
78313;BME280;67568;47.438;21.408;2024-03-23T14:42:49;99579.41;;;17.91;40.44
78313;BME280;67568;47.438;21.408;2024-03-23T14:45:14;99569.69;;;17.85;40.69
78313;BME280;67568;47.438;21.408;2024-03-23T14:47:40;99571.66;;;17.85;40.95
78313;BME280;67568;47.438;21.408;2024-03-23T14:50:06;99562.38;;;17.81;40.85
78313;BME280;67568;47.438;21.408;2024-03-23T14:52:32;99563.31;;;17.69;41.27
78313;BME280;67568;47.438;21.408;2024-03-23T14:54:57;99564.50;;;17.68;41.43
78313;BME280;67568;47.438;21.408;2024-03-23T14:57:23;99565.25;;;17.65;41.89
78313;BME280;67568;47.438;21.408;2024-03-23T14:59:49;99556.66;;;17.58;41.37
78313;BME280;67568;47.438;21.408;2024-03-23T15:02:14;99558.16;;;17.51;41.79
78313;BME280;67568;47.438;21.408;2024-03-23T15:04:40;99556.97;;;17.52;41.81
78313;BME280;67568;47.438;21.408;2024-03-23T15:07:05;99546.94;;;17.51;42.00
78313;BME280;67568;47.438;21.408;2024-03-23T15:09:31;99552.09;;;17.49;41.56
78313;BME280;67568;47.438;21.408;2024-03-23T15:11:57;99542.44;;;17.47;42.02
78313;BME280;67568;47.438;21.408;2024-03-23T15:14:23;99541.19;;;17.44;41.80
78313;BME280;67568;47.438;21.408;2024-03-23T15:16:52;99540.75;;;17.42;41.99
78313;BME280;67568;47.438;21.408;2024-03-23T15:19:18;99541.50;;;17.39;42.13
78313;BME280;67568;47.438;21.408;2024-03-23T15:21:44;99531.03;;;17.36;42.71
78313;BME280;67568;47.438;21.408;2024-03-23T15:24:10;99528.59;;;17.35;42.33
78313;BME280;67568;47.438;21.408;2024-03-23T15:26:36;99531.84;;;17.37;42.64
78313;BME280;67568;47.438;21.408;2024-03-23T15:29:02;99522.63;;;17.36;42.42
78313;BME280;67568;47.438;21.408;2024-03-23T15:31:28;99523.34;;;17.33;42.64
78313;BME280;67568;47.438;21.408;2024-03-23T15:33:53;99520.47;;;17.29;42.65
78313;BME280;67568;47.438;21.408;2024-03-23T15:36:19;99517.22;;;17.27;42.83
78313;BME280;67568;47.438;21.408;2024-03-23T15:38:45;99513.50;;;17.20;43.19
78313;BME280;67568;47.438;21.408;2024-03-23T15:41:10;99518.63;;;17.18;43.70
78313;BME280;67568;47.438;21.408;2024-03-23T15:43:36;99518.50;;;17.11;43.33
78313;BME280;67568;47.438;21.408;2024-03-23T15:46:03;99516.41;;;17.07;43.98
78313;BME280;67568;47.438;21.408;2024-03-23T15:48:30;99507.13;;;17.03;43.83
78313;BME280;67568;47.438;21.408;2024-03-23T15:50:57;99513.66;;;16.92;44.08
78313;BME280;67568;47.438;21.408;2024-03-23T15:53:24;99507.69;;;16.93;44.69
78313;BME280;67568;47.438;21.408;2024-03-23T15:56:01;99497.97;;;16.87;44.30
78313;BME280;67568;47.438;21.408;2024-03-23T15:58:27;99504.28;;;16.84;44.32
78313;BME280;67568;47.438;21.408;2024-03-23T16:01:00;99491.28;;;16.76;45.19
78313;BME280;67568;47.438;21.408;2024-03-23T16:03:27;99499.25;;;16.74;45.53
78313;BME280;67568;47.438;21.408;2024-03-23T16:05:54;99500.69;;;16.68;44.91
78313;BME280;67568;47.438;21.408;2024-03-23T16:08:20;99495.81;;;16.64;44.95
78313;BME280;67568;47.438;21.408;2024-03-23T16:10:46;99490.97;;;16.61;45.63
78313;BME280;67568;47.438;21.408;2024-03-23T16:13:12;99494.13;;;16.60;45.73
78313;BME280;67568;47.438;21.408;2024-03-23T16:15:37;99489.63;;;16.55;46.07
78313;BME280;67568;47.438;21.408;2024-03-23T16:18:03;99489.91;;;16.50;45.69
78313;BME280;67568;47.438;21.408;2024-03-23T16:20:29;99481.81;;;16.45;46.11
78313;BME280;67568;47.438;21.408;2024-03-23T16:22:55;99479.72;;;16.42;46.09
78313;BME280;67568;47.438;21.408;2024-03-23T16:25:21;99472.06;;;16.39;46.39
78313;BME280;67568;47.438;21.408;2024-03-23T16:27:47;99479.09;;;16.33;46.80
78313;BME280;67568;47.438;21.408;2024-03-23T16:30:13;99465.84;;;16.30;46.57
78313;BME280;67568;47.438;21.408;2024-03-23T16:32:39;99465.69;;;16.23;47.05
78313;BME280;67568;47.438;21.408;2024-03-23T16:35:04;99473.16;;;16.18;47.34
78313;BME280;67568;47.438;21.408;2024-03-23T16:37:30;99469.09;;;16.16;47.29
78313;BME280;67568;47.438;21.408;2024-03-23T16:39:56;99459.91;;;16.15;47.67
78313;BME280;67568;47.438;21.408;2024-03-23T16:42:22;99466.69;;;16.14;47.28
78313;BME280;67568;47.438;21.408;2024-03-23T16:44:48;99464.69;;;16.15;47.23
78313;BME280;67568;47.438;21.408;2024-03-23T16:47:13;99465.22;;;16.05;48.26
78313;BME280;67568;47.438;21.408;2024-03-23T16:49:39;99470.47;;;16.06;48.20
78313;BME280;67568;47.438;21.408;2024-03-23T16:52:05;99470.00;;;16.04;48.02
78313;BME280;67568;47.438;21.408;2024-03-23T16:54:30;99464.78;;;16.03;48.30
78313;BME280;67568;47.438;21.408;2024-03-23T16:56:56;99465.53;;;16.00;48.93
78313;BME280;67568;47.438;21.408;2024-03-23T16:59:22;99467.78;;;15.94;48.68
78313;BME280;67568;47.438;21.408;2024-03-23T17:01:48;99474.09;;;15.91;48.96
78313;BME280;67568;47.438;21.408;2024-03-23T17:04:13;99471.97;;;15.88;49.01
78313;BME280;67568;47.438;21.408;2024-03-23T17:06:39;99470.53;;;15.78;49.61
78313;BME280;67568;47.438;21.408;2024-03-23T17:09:08;99473.25;;;15.74;49.47
78313;BME280;67568;47.438;21.408;2024-03-23T17:11:33;99473.25;;;15.74;49.17
78313;BME280;67568;47.438;21.408;2024-03-23T17:13:59;99470.38;;;15.71;48.86
78313;BME280;67568;47.438;21.408;2024-03-23T17:16:25;99469.19;;;15.72;49.44
78313;BME280;67568;47.438;21.408;2024-03-23T17:18:50;99471.19;;;15.71;49.39
78313;BME280;67568;47.438;21.408;2024-03-23T17:21:16;99473.50;;;15.69;49.77
78313;BME280;67568;47.438;21.408;2024-03-23T17:23:42;99469.19;;;15.72;49.32
78313;BME280;67568;47.438;21.408;2024-03-23T17:26:07;99467.91;;;15.69;49.43
78313;BME280;67568;47.438;21.408;2024-03-23T17:28:33;99471.41;;;15.66;49.49
78313;BME280;67568;47.438;21.408;2024-03-23T17:30:59;99460.13;;;15.63;49.34
78313;BME280;67568;47.438;21.408;2024-03-23T17:33:24;99456.50;;;15.62;49.49
78313;BME280;67568;47.438;21.408;2024-03-23T17:35:50;99456.88;;;15.61;49.33
78313;BME280;67568;47.438;21.408;2024-03-23T17:38:15;99462.56;;;15.64;49.23
78313;BME280;67568;47.438;21.408;2024-03-23T17:40:41;99462.56;;;15.64;49.15
78313;BME280;67568;47.438;21.408;2024-03-23T17:43:07;99458.06;;;15.60;49.24
78313;BME280;67568;47.438;21.408;2024-03-23T17:45:32;99454.44;;;15.59;49.06